createdAt,value
2018-06-12T00:01:49.898Z,97.20
2018-06-12T00:04:18.249Z,97.80
2018-06-12T00:06:46.571Z,97.10
2018-06-12T00:09:14.927Z,97.50
2018-06-12T00:11:43.260Z,98.40
2018-06-12T00:14:11.644Z,98.20
2018-06-12T00:16:39.916Z,97.30
2018-06-12T00:19:08.225Z,97.40
2018-06-12T00:21:36.620Z,98.30
2018-06-12T00:24:04.943Z,98.20
2018-06-12T00:26:33.260Z,98.30
2018-06-12T00:29:01.611Z,98.20
2018-06-12T00:31:29.887Z,98.90
2018-06-12T00:33:58.189Z,99.20
2018-06-12T00:36:26.504Z,99.20
2018-06-12T00:38:54.830Z,99.00
2018-06-12T00:41:23.126Z,98.90
2018-06-12T00:43:51.456Z,99.30
2018-06-12T00:46:19.748Z,99.60
2018-06-12T00:48:48.101Z,99.90
2018-06-12T00:51:16.383Z,99.90
2018-06-12T00:53:44.713Z,99.40
2018-06-12T00:56:23.444Z,99.70
2018-06-12T00:58:51.748Z,99.80
2018-06-12T01:01:20.064Z,99.90
2018-06-12T01:03:48.332Z,99.90
2018-06-12T01:06:16.651Z,99.90
2018-06-12T01:08:45.005Z,99.90
2018-06-12T01:11:13.315Z,99.90
2018-06-12T01:13:41.633Z,98.90
2018-06-12T01:16:09.955Z,98.70
2018-06-12T01:18:38.276Z,99.00
2018-06-12T01:23:34.612Z,99.40
2018-06-12T01:26:02.985Z,99.00
2018-06-12T01:28:31.335Z,99.70
2018-06-12T01:30:59.686Z,99.90
2018-06-12T01:33:28.005Z,99.90
2018-06-12T01:35:56.333Z,99.70
2018-06-12T01:38:24.650Z,99.70
2018-06-12T01:40:53.008Z,99.30
2018-06-12T01:43:21.333Z,99.60
2018-06-12T01:45:49.645Z,99.00
2018-06-12T01:48:18.025Z,99.60
2018-06-12T01:50:46.324Z,99.90
2018-06-12T01:53:14.795Z,99.90
2018-06-12T01:55:43.064Z,99.90
2018-06-12T01:58:11.323Z,99.90
2018-06-12T02:00:39.615Z,99.90
2018-06-12T02:03:08.072Z,99.90
2018-06-12T02:08:04.590Z,99.90
2018-06-12T02:10:32.944Z,99.90
2018-06-12T02:13:01.251Z,99.90
2018-06-12T02:15:29.531Z,99.90
2018-06-12T02:17:57.851Z,99.90
2018-06-12T02:20:26.150Z,99.90
2018-06-12T02:22:55.912Z,99.90
2018-06-12T02:25:24.455Z,99.90
2018-06-12T02:27:52.735Z,99.90
2018-06-12T02:30:21.004Z,99.90
2018-06-12T02:32:49.367Z,99.90
2018-06-12T02:35:17.688Z,99.90
2018-06-12T02:37:45.967Z,99.90
2018-06-12T02:40:14.258Z,99.90
2018-06-12T02:42:42.528Z,99.90
2018-06-12T02:45:10.825Z,99.90
2018-06-12T02:47:39.180Z,99.90
2018-06-12T02:50:07.486Z,99.90
2018-06-12T02:52:35.878Z,99.90
2018-06-12T02:55:04.163Z,99.90
2018-06-12T02:57:32.453Z,99.90
2018-06-12T03:00:00.730Z,99.90
2018-06-12T03:02:29.004Z,99.90
2018-06-12T03:04:57.324Z,99.90
2018-06-12T03:07:25.695Z,99.90
2018-06-12T03:09:53.974Z,99.90
2018-06-12T03:12:22.294Z,99.90
2018-06-12T03:14:50.658Z,99.90
2018-06-12T03:17:18.945Z,99.90
2018-06-12T03:19:47.304Z,99.90
2018-06-12T03:22:15.598Z,99.90
2018-06-12T03:24:44.000Z,99.90
2018-06-12T03:27:12.443Z,99.90
2018-06-12T03:29:40.786Z,99.90
2018-06-12T03:32:09.104Z,99.90
2018-06-12T03:37:05.461Z,99.90
2018-06-12T03:39:33.823Z,99.90
2018-06-12T03:42:02.156Z,99.90
2018-06-12T03:44:30.460Z,99.90
2018-06-12T03:46:58.805Z,99.90
2018-06-12T03:49:27.133Z,99.90
2018-06-12T03:51:55.415Z,99.90
2018-06-12T03:54:23.731Z,99.90
2018-06-12T03:56:52.044Z,99.90
2018-06-12T03:59:20.355Z,99.90
2018-06-12T04:01:48.640Z,99.90
2018-06-12T04:04:16.943Z,99.90
2018-06-12T04:06:45.284Z,99.90
2018-06-12T04:11:41.640Z,99.90
2018-06-12T04:14:09.931Z,99.90
2018-06-12T04:16:38.186Z,99.90
2018-06-12T04:19:07.271Z,99.90
2018-06-12T04:21:36.070Z,99.90
2018-06-12T04:24:04.425Z,99.90
2018-06-12T04:26:32.710Z,99.90
2018-06-12T04:29:01.002Z,99.90
2018-06-12T04:31:29.304Z,99.90
2018-06-12T04:33:57.580Z,99.90
2018-06-12T04:36:25.888Z,99.90
2018-06-12T04:38:54.249Z,99.90
2018-06-12T04:41:22.612Z,99.90
2018-06-12T04:43:51.152Z,99.90
2018-06-12T04:46:19.526Z,99.90
2018-06-12T04:48:47.917Z,99.90
2018-06-12T04:51:16.240Z,99.90
2018-06-12T04:53:44.843Z,99.90
2018-06-12T04:56:13.263Z,99.90
2018-06-12T04:58:41.756Z,99.90
2018-06-12T05:01:10.177Z,99.90
2018-06-12T05:03:38.782Z,99.90
2018-06-12T05:06:08.260Z,99.90
2018-06-12T05:08:36.751Z,99.80
2018-06-12T05:11:05.249Z,99.90
2018-06-12T05:13:33.641Z,99.90
2018-06-12T05:16:02.181Z,99.90
2018-06-12T05:18:30.612Z,99.90
2018-06-12T05:20:59.045Z,99.90
2018-06-12T05:23:27.440Z,99.90
2018-06-12T05:25:55.963Z,99.90
2018-06-12T05:28:24.542Z,99.90
2018-06-12T05:30:52.932Z,99.90
2018-06-12T05:33:21.272Z,99.90
2018-06-12T05:35:49.643Z,99.90
2018-06-12T05:38:18.117Z,99.90
2018-06-12T05:40:46.525Z,99.90
2018-06-12T05:43:14.945Z,99.90
2018-06-12T05:45:43.360Z,99.90
2018-06-12T05:48:11.906Z,99.80
2018-06-12T05:50:40.396Z,99.80
2018-06-12T05:53:08.747Z,99.90
2018-06-12T05:55:37.254Z,99.90
2018-06-12T05:58:05.855Z,99.90
2018-06-12T06:00:34.292Z,99.90
2018-06-12T06:03:02.759Z,99.90
2018-06-12T06:05:31.197Z,99.90
2018-06-12T06:07:59.830Z,99.90
2018-06-12T06:10:28.313Z,99.80
2018-06-12T06:12:56.724Z,99.60
2018-06-12T06:15:25.112Z,99.60
2018-06-12T06:17:53.492Z,99.90
2018-06-12T06:20:21.871Z,99.90
2018-06-12T06:22:50.218Z,99.90
2018-06-12T06:25:18.575Z,99.80
2018-06-12T06:27:46.957Z,99.30
2018-06-12T06:30:15.361Z,98.10
2018-06-12T06:32:43.757Z,98.30
2018-06-12T06:35:12.124Z,98.20
2018-06-12T06:37:40.543Z,97.80
2018-06-12T06:40:08.912Z,97.10
2018-06-12T06:42:37.282Z,97.50
2018-06-12T06:45:05.634Z,97.50
2018-06-12T06:47:33.975Z,96.70
2018-06-12T06:50:02.305Z,96.50
2018-06-12T06:52:30.644Z,96.20
2018-06-12T06:54:58.989Z,96.70
2018-06-12T06:57:27.469Z,97.00
2018-06-12T06:59:55.871Z,96.60
2018-06-12T07:02:24.210Z,95.40
2018-06-12T07:04:52.561Z,95.20
2018-06-12T07:07:21.161Z,95.50
2018-06-12T07:09:49.585Z,94.90
2018-06-12T07:12:17.918Z,95.10
2018-06-12T07:14:46.251Z,94.50
2018-06-12T07:17:14.662Z,94.90
2018-06-12T07:19:42.953Z,94.20
2018-06-12T07:22:11.299Z,94.20
2018-06-12T07:24:39.644Z,93.60
2018-06-12T07:27:08.044Z,94.30
2018-06-12T07:29:36.393Z,92.90
2018-06-12T07:32:04.736Z,92.90
2018-06-12T07:34:33.074Z,93.00
2018-06-12T07:37:01.401Z,93.00
2018-06-12T07:39:29.829Z,92.80
2018-06-12T07:41:58.184Z,92.80
2018-06-12T07:44:26.504Z,92.50
2018-06-12T07:46:54.871Z,92.30
2018-06-12T07:49:23.271Z,91.90
2018-06-12T07:51:51.624Z,91.60
2018-06-12T07:54:19.915Z,91.70
2018-06-12T07:56:48.274Z,92.20
2018-06-12T07:59:16.622Z,91.80
2018-06-12T08:01:44.956Z,92.40
2018-06-12T08:04:13.252Z,92.70
2018-06-12T08:06:41.593Z,91.90
2018-06-12T08:09:09.921Z,91.90
2018-06-12T08:11:38.227Z,92.00
2018-06-12T08:14:06.587Z,92.10
2018-06-12T08:16:34.889Z,91.80
2018-06-12T08:19:03.320Z,91.80
2018-06-12T08:21:31.607Z,92.00
2018-06-12T08:24:00.054Z,92.00
2018-06-12T08:26:28.344Z,91.90
2018-06-12T08:28:56.657Z,91.60
2018-06-12T08:31:24.966Z,91.80
2018-06-12T08:33:53.335Z,92.30
2018-06-12T08:36:21.613Z,92.40
2018-06-12T08:38:50.719Z,92.40
2018-06-12T08:41:19.098Z,92.90
2018-06-12T08:43:47.443Z,92.80
2018-06-12T08:46:15.770Z,92.20
2018-06-12T08:48:44.148Z,93.00
2018-06-12T08:51:12.458Z,91.60
2018-06-12T08:53:40.838Z,91.00
2018-06-12T08:56:09.216Z,90.00
2018-06-12T08:58:37.482Z,90.20
2018-06-12T09:03:33.774Z,90.00
2018-06-12T09:06:02.239Z,88.30
2018-06-12T09:08:30.644Z,87.90
2018-06-12T09:10:59.020Z,89.00
2018-06-12T09:13:27.504Z,88.40
2018-06-12T09:15:55.793Z,89.60
2018-06-12T09:18:24.148Z,89.30
2018-06-12T09:20:52.437Z,90.10
2018-06-12T09:23:20.717Z,90.10
2018-06-12T09:25:48.985Z,89.60
2018-06-12T09:28:17.285Z,89.30
2018-06-12T09:30:45.569Z,90.00
2018-06-12T09:33:13.865Z,90.40
2018-06-12T09:35:42.113Z,89.90
2018-06-12T09:38:10.371Z,88.70
2018-06-12T09:40:38.665Z,88.40
2018-06-12T09:43:06.969Z,86.60
2018-06-12T09:48:03.315Z,87.70
2018-06-12T09:50:31.650Z,87.50
2018-06-12T09:52:59.909Z,86.00
2018-06-12T09:55:28.232Z,84.20
2018-06-12T09:57:56.567Z,84.20
2018-06-12T10:00:30.229Z,82.50
2018-06-12T10:02:58.725Z,84.40
2018-06-12T10:05:27.054Z,83.40
2018-06-12T10:07:55.459Z,83.60
2018-06-12T10:10:23.745Z,82.70
2018-06-12T10:12:52.087Z,83.70
2018-06-12T10:15:20.391Z,85.40
2018-06-12T10:17:48.700Z,80.70
2018-06-12T10:20:17.136Z,80.40
2018-06-12T10:22:45.447Z,79.00
2018-06-12T10:25:13.777Z,79.40
2018-06-12T10:27:42.098Z,81.00
2018-06-12T10:30:10.400Z,78.80
2018-06-12T10:32:38.832Z,79.50
2018-06-12T10:35:07.249Z,82.80
2018-06-12T10:37:35.647Z,81.90
2018-06-12T10:40:04.097Z,79.60
2018-06-12T10:42:32.415Z,83.20
2018-06-12T10:45:00.704Z,83.50
2018-06-12T10:47:29.113Z,81.40
2018-06-12T10:49:57.516Z,80.80
2018-06-12T10:52:25.920Z,81.80
2018-06-12T10:54:54.221Z,81.90
2018-06-12T10:57:22.599Z,81.10
2018-06-12T10:59:50.984Z,83.50
2018-06-12T11:02:19.386Z,84.20
2018-06-12T11:04:47.744Z,83.20
2018-06-12T11:07:16.140Z,84.60
2018-06-12T11:09:44.520Z,83.30
2018-06-12T11:12:12.905Z,83.40
2018-06-12T11:14:41.237Z,83.90
2018-06-12T11:17:09.642Z,83.60
2018-06-12T11:19:38.064Z,83.00
2018-06-12T11:22:06.715Z,83.00
2018-06-12T11:24:34.981Z,83.40
2018-06-12T11:27:03.224Z,83.10
2018-06-12T11:29:33.167Z,80.30
2018-06-12T11:32:02.433Z,82.60
2018-06-12T11:34:32.690Z,79.40
2018-06-12T11:37:01.213Z,80.60
2018-06-12T11:39:29.476Z,82.40
2018-06-12T11:41:57.759Z,81.20
2018-06-12T11:44:25.995Z,80.20
2018-06-12T11:46:54.232Z,78.70
2018-06-12T11:49:22.461Z,77.90
2018-06-12T11:51:50.692Z,80.90
2018-06-12T11:54:18.944Z,80.50
2018-06-12T11:56:47.172Z,81.10
2018-06-12T11:59:15.422Z,80.00
2018-06-12T12:01:43.688Z,81.90
2018-06-12T12:04:11.902Z,80.00
2018-06-12T12:06:40.244Z,82.60
2018-06-12T12:09:08.925Z,80.80
2018-06-12T12:11:37.467Z,80.90
2018-06-12T12:14:06.026Z,82.90
2018-06-12T12:16:34.240Z,82.30
2018-06-12T12:19:02.628Z,84.80
2018-06-12T12:21:30.851Z,85.00
2018-06-12T12:23:59.084Z,86.80
2018-06-12T12:26:27.447Z,87.80
2018-06-12T12:28:55.796Z,86.80
2018-06-12T12:31:24.171Z,84.50
2018-06-12T12:33:52.571Z,84.30
2018-06-12T12:36:21.067Z,85.60
2018-06-12T12:38:49.385Z,89.00
2018-06-12T12:41:17.673Z,88.70
2018-06-12T12:43:45.945Z,84.70
2018-06-12T12:46:14.293Z,84.00
2018-06-12T12:48:42.561Z,87.60
2018-06-12T12:51:10.837Z,90.60
2018-06-12T12:53:39.133Z,89.50
2018-06-12T12:56:07.443Z,89.90
2018-06-12T12:58:35.762Z,88.00
2018-06-12T13:01:04.128Z,87.60
2018-06-12T13:03:32.447Z,87.80
2018-06-12T13:06:00.737Z,90.00
2018-06-12T13:08:29.159Z,89.00
2018-06-12T13:10:57.437Z,88.80
2018-06-12T13:13:25.720Z,88.70
2018-06-12T13:15:54.199Z,90.40
2018-06-12T13:18:22.643Z,88.50
2018-06-12T13:20:50.950Z,90.50
2018-06-12T13:23:19.255Z,89.60
2018-06-12T13:25:47.596Z,90.40
2018-06-12T13:28:16.134Z,90.40
2018-06-12T13:30:44.456Z,89.10
2018-06-12T13:33:13.108Z,88.80
2018-06-12T13:35:41.485Z,88.30
2018-06-12T13:38:09.791Z,86.40
2018-06-12T13:40:38.267Z,88.90
2018-06-12T13:43:12.382Z,84.10
2018-06-12T13:45:40.672Z,83.60
2018-06-12T13:48:08.988Z,87.60
2018-06-12T13:50:37.423Z,88.50
2018-06-12T13:53:05.819Z,88.60
2018-06-12T13:55:34.196Z,87.20
2018-06-12T13:58:02.620Z,87.40
2018-06-12T14:00:30.927Z,87.00
2018-06-12T14:02:59.316Z,86.10
2018-06-12T14:05:27.942Z,88.60
2018-06-12T14:07:56.356Z,86.60
2018-06-12T14:10:24.714Z,86.00
2018-06-12T14:12:53.147Z,84.20
2018-06-12T14:15:21.505Z,85.50
2018-06-12T14:17:49.867Z,86.20
2018-06-12T14:20:18.232Z,86.50
2018-06-12T14:22:46.548Z,85.00
2018-06-12T14:25:15.017Z,84.50
2018-06-12T14:27:43.489Z,80.90
2018-06-12T14:30:11.999Z,83.60
2018-06-12T14:32:40.384Z,82.40
2018-06-12T14:35:08.811Z,82.30
2018-06-12T14:37:37.373Z,83.40
2018-06-12T14:40:05.753Z,83.40
2018-06-12T14:42:34.197Z,83.80
2018-06-12T14:45:02.628Z,82.40
2018-06-12T14:47:31.055Z,83.40
2018-06-12T14:49:59.434Z,84.20
2018-06-12T14:52:27.908Z,83.10
2018-06-12T14:54:56.324Z,82.70
2018-06-12T14:57:24.731Z,84.80
2018-06-12T14:59:53.188Z,87.10
2018-06-12T15:02:21.671Z,88.00
2018-06-12T15:04:50.050Z,85.50
2018-06-12T15:07:18.504Z,83.60
2018-06-12T15:09:46.968Z,84.70
2018-06-12T15:12:15.561Z,85.10
2018-06-12T15:14:43.910Z,84.90
2018-06-12T15:17:12.328Z,85.00
2018-06-12T15:19:40.734Z,87.50
2018-06-12T15:22:09.149Z,87.00
2018-06-12T15:24:37.740Z,86.00
2018-06-12T15:27:06.276Z,85.90
2018-06-12T15:29:34.765Z,83.90
2018-06-12T15:32:03.187Z,83.70
2018-06-12T15:34:31.687Z,84.00
2018-06-12T15:36:59.983Z,85.50
2018-06-12T15:39:28.339Z,84.40
2018-06-12T15:41:56.729Z,84.10
2018-06-12T15:44:25.124Z,85.50
2018-06-12T15:46:53.505Z,86.10
2018-06-12T15:49:21.811Z,86.30
2018-06-12T15:51:50.132Z,85.70
2018-06-12T15:54:18.548Z,86.10
2018-06-12T15:56:46.960Z,85.60
2018-06-12T15:59:15.280Z,85.80
2018-06-12T16:01:43.856Z,85.80
2018-06-12T16:04:12.244Z,85.10
2018-06-12T16:06:40.719Z,83.40
2018-06-12T16:09:09.514Z,84.50
2018-06-12T16:11:39.359Z,82.60
2018-06-12T16:14:07.851Z,83.30
2018-06-12T16:16:36.389Z,85.00
2018-06-12T16:19:05.233Z,85.50
2018-06-12T16:21:33.716Z,85.00
2018-06-12T16:24:02.145Z,84.50
2018-06-12T16:26:30.612Z,85.40
2018-06-12T16:28:58.962Z,88.30
2018-06-12T16:31:27.373Z,91.30
2018-06-12T16:33:55.981Z,92.80
2018-06-12T16:36:24.860Z,92.80
2018-06-12T16:38:53.272Z,93.80
2018-06-12T16:41:21.822Z,93.50
2018-06-12T16:43:50.111Z,93.80
2018-06-12T16:46:18.419Z,94.10
2018-06-12T16:51:14.836Z,95.40
2018-06-12T16:53:43.315Z,94.90
2018-06-12T16:56:11.583Z,95.10
2018-06-12T16:58:40.060Z,93.50
2018-06-12T17:01:08.504Z,94.80
2018-06-12T17:03:36.977Z,94.00
2018-06-12T17:06:05.335Z,93.70
2018-06-12T17:08:33.550Z,94.10
2018-06-12T17:11:02.308Z,94.50
2018-06-12T17:13:30.700Z,94.10
2018-06-12T17:15:59.098Z,94.50
2018-06-12T17:18:27.404Z,94.50
2018-06-12T17:20:55.722Z,94.40
2018-06-12T17:23:24.104Z,93.60
2018-06-12T17:25:52.475Z,93.60
2018-06-12T17:28:20.853Z,91.90
2018-06-12T17:30:49.231Z,91.90
2018-06-12T17:33:17.848Z,92.20
2018-06-12T17:35:46.304Z,92.40
2018-06-12T17:38:14.703Z,93.20
2018-06-12T17:40:43.152Z,93.40
2018-06-12T17:45:39.653Z,92.70
2018-06-12T17:48:08.012Z,92.70
2018-06-12T17:50:36.502Z,92.50
2018-06-12T17:53:04.958Z,92.40
2018-06-12T17:55:33.532Z,91.30
2018-06-12T17:58:02.188Z,92.00
2018-06-12T18:00:30.682Z,91.50
2018-06-12T18:02:59.075Z,91.10
2018-06-12T18:05:27.445Z,91.00
2018-06-12T18:07:56.851Z,91.40
2018-06-12T18:10:25.256Z,91.30
2018-06-12T18:12:53.799Z,91.40
2018-06-12T18:15:23.191Z,91.10
2018-06-12T18:17:51.690Z,91.80
2018-06-12T18:20:22.221Z,92.70
2018-06-12T18:22:50.651Z,93.00
2018-06-12T18:25:19.126Z,94.00
2018-06-12T18:27:47.553Z,93.80
2018-06-12T18:30:16.083Z,93.50
2018-06-12T18:32:44.557Z,93.70
2018-06-12T18:35:12.996Z,93.70
2018-06-12T18:37:41.525Z,94.20
2018-06-12T18:40:09.944Z,94.30
2018-06-12T18:42:38.356Z,94.40
2018-06-12T18:45:06.880Z,95.10
2018-06-12T18:47:35.284Z,94.10
2018-06-12T18:50:03.898Z,94.30
2018-06-12T18:52:32.293Z,94.30
2018-06-12T18:55:00.740Z,94.40
2018-06-12T18:57:30.206Z,94.50
2018-06-12T18:59:58.585Z,94.40
2018-06-12T19:02:26.998Z,94.80
2018-06-12T19:04:55.315Z,94.70
2018-06-12T19:07:23.758Z,94.80
2018-06-12T19:09:52.156Z,95.10
2018-06-12T19:12:20.664Z,95.70
2018-06-12T19:14:49.184Z,96.10
2018-06-12T19:17:17.628Z,96.30
2018-06-12T19:19:46.066Z,95.70
2018-06-12T19:22:14.501Z,95.00
2018-06-12T19:24:42.938Z,94.00
2018-06-12T19:27:11.469Z,94.10
2018-06-12T19:29:39.887Z,93.60
2018-06-12T19:32:08.418Z,93.10
2018-06-12T19:34:37.758Z,93.30
2018-06-12T19:37:06.168Z,93.50
2018-06-12T19:39:34.593Z,94.00
2018-06-12T19:42:04.201Z,93.90
2018-06-12T19:44:32.701Z,94.30
2018-06-12T19:47:01.109Z,94.20
2018-06-12T19:49:29.584Z,94.60
2018-06-12T19:51:58.008Z,94.90
2018-06-12T19:54:26.728Z,95.60
2018-06-12T19:56:55.298Z,96.30
2018-06-12T19:59:23.677Z,97.20
2018-06-12T20:01:52.239Z,96.90
2018-06-12T20:04:20.849Z,97.60
2018-06-12T20:06:49.281Z,97.90
2018-06-12T20:09:17.681Z,97.70
2018-06-12T20:11:46.160Z,98.50
2018-06-12T20:14:14.804Z,98.40
2018-06-12T20:16:43.348Z,97.90
2018-06-12T20:19:11.851Z,98.20
2018-06-12T20:21:40.546Z,98.60
2018-06-12T20:24:09.111Z,97.90
2018-06-12T20:26:37.585Z,98.50
2018-06-12T20:29:06.104Z,98.90
2018-06-12T20:31:34.546Z,98.90
2018-06-12T20:34:03.113Z,98.70
2018-06-12T20:36:31.773Z,97.90
2018-06-12T20:39:00.392Z,97.60
2018-06-12T20:41:28.828Z,98.50
2018-06-12T20:43:57.587Z,98.70
2018-06-12T20:46:26.612Z,98.30
2018-06-12T20:48:56.884Z,98.00
2018-06-12T20:51:28.344Z,97.70
2018-06-12T20:53:58.132Z,97.40
2018-06-12T20:58:55.030Z,97.10
2018-06-12T21:01:23.532Z,97.70
2018-06-12T21:03:52.109Z,97.90
2018-06-12T21:06:21.257Z,97.50
2018-06-12T21:08:50.414Z,97.80
2018-06-12T21:11:19.029Z,98.30
2018-06-12T21:13:47.673Z,97.80
2018-06-12T21:16:16.165Z,97.30
2018-06-12T21:18:45.003Z,97.40
2018-06-12T21:21:13.477Z,98.20
2018-06-12T21:23:42.659Z,98.20
2018-06-12T21:28:39.934Z,97.40
2018-06-12T21:31:08.533Z,97.40
2018-06-12T21:33:37.092Z,97.50
2018-06-12T21:36:05.702Z,98.00
2018-06-12T21:38:34.412Z,97.70
2018-06-12T21:41:02.826Z,97.80
2018-06-12T21:43:31.336Z,98.00
2018-06-12T21:45:59.748Z,97.70
2018-06-12T21:48:28.132Z,98.10
2018-06-12T21:50:56.554Z,97.70
2018-06-12T21:53:25.062Z,98.00
2018-06-12T21:55:53.470Z,98.10
2018-06-12T21:58:21.880Z,98.10
2018-06-12T22:00:50.417Z,97.10
2018-06-12T22:03:18.936Z,98.20
2018-06-12T22:05:47.356Z,97.60
2018-06-12T22:08:15.845Z,97.50
2018-06-12T22:13:12.369Z,97.90
2018-06-12T22:15:44.205Z,97.70
2018-06-12T22:18:12.674Z,97.00
2018-06-12T22:20:41.160Z,97.50
2018-06-12T22:23:09.531Z,97.20
2018-06-12T22:25:37.951Z,96.60
2018-06-12T22:28:06.365Z,96.80
2018-06-12T22:30:34.778Z,96.90
2018-06-12T22:33:03.201Z,96.90
2018-06-12T22:37:59.720Z,97.60
2018-06-12T22:40:28.138Z,97.10
2018-06-12T22:42:56.543Z,97.40
2018-06-12T22:45:24.974Z,97.40
2018-06-12T22:47:54.925Z,97.10
2018-06-12T22:50:23.396Z,96.50
2018-06-12T22:52:51.868Z,97.00
2018-06-12T22:55:20.339Z,96.70
2018-06-12T22:57:48.798Z,96.20
2018-06-12T23:02:47.216Z,96.70
2018-06-12T23:05:15.596Z,96.00
2018-06-12T23:07:44.019Z,96.60
2018-06-12T23:10:12.385Z,96.90
2018-06-12T23:12:40.852Z,95.90
2018-06-12T23:15:09.285Z,96.50
2018-06-12T23:17:37.689Z,96.80
2018-06-12T23:20:17.521Z,96.20
2018-06-12T23:22:45.923Z,96.40
2018-06-12T23:25:14.397Z,96.60
2018-06-12T23:27:42.743Z,97.00
2018-06-12T23:30:11.140Z,95.70
2018-06-12T23:32:39.591Z,95.90
2018-06-12T23:35:08.026Z,95.40
2018-06-12T23:37:36.451Z,95.80
2018-06-12T23:40:04.816Z,96.00
2018-06-12T23:42:33.263Z,95.80
2018-06-12T23:45:01.646Z,96.10
2018-06-12T23:47:30.072Z,96.20
2018-06-12T23:49:58.531Z,95.50
2018-06-12T23:52:26.866Z,95.90
2018-06-12T23:54:55.191Z,96.10
2018-06-12T23:57:23.576Z,95.90
2018-06-12T23:59:51.905Z,95.50
